sensor_id;sensor_type;location;lat;lon;timestamp;pressure;altitude;pressure_sealevel;temperature;humidity
71476;BME280;59286;59.274;17.974;2023-02-17T00:00:54;100554.63;;;2.16;100.00
71476;BME280;59286;59.274;17.974;2023-02-17T00:03:19;100544.75;;;2.13;100.00
71476;BME280;59286;59.274;17.974;2023-02-17T00:05:44;100546.84;;;2.11;100.00
71476;BME280;59286;59.274;17.974;2023-02-17T00:08:10;100538.84;;;2.12;100.00
71476;BME280;59286;59.274;17.974;2023-02-17T00:10:35;100543.69;;;2.09;100.00
71476;BME280;59286;59.274;17.974;2023-02-17T00:13:01;100541.66;;;2.11;100.00
71476;BME280;59286;59.274;17.974;2023-02-17T00:15:26;100531.31;;;2.11;100.00
71476;BME280;59286;59.274;17.974;2023-02-17T00:17:51;100533.41;;;2.14;100.00
71476;BME280;59286;59.274;17.974;2023-02-17T00:20:17;100536.00;;;2.14;100.00
71476;BME280;59286;59.274;17.974;2023-02-17T00:22:42;100526.16;;;2.11;100.00
71476;BME280;59286;59.274;17.974;2023-02-17T00:25:07;100530.34;;;2.17;100.00
71476;BME280;59286;59.274;17.974;2023-02-17T00:27:33;100514.22;;;2.10;100.00
71476;BME280;59286;59.274;17.974;2023-02-17T00:29:58;100526.75;;;2.18;100.00
71476;BME280;59286;59.274;17.974;2023-02-17T00:32:23;100516.09;;;2.14;100.00
71476;BME280;59286;59.274;17.974;2023-02-17T00:34:51;100520.28;;;2.20;100.00
71476;BME280;59286;59.274;17.974;2023-02-17T00:37:16;100521.88;;;2.21;100.00
71476;BME280;59286;59.274;17.974;2023-02-17T00:39:42;100507.84;;;2.17;100.00
71476;BME280;59286;59.274;17.974;2023-02-17T00:42:07;100503.00;;;2.21;100.00
71476;BME280;59286;59.274;17.974;2023-02-17T00:44:33;100507.84;;;2.17;100.00
71476;BME280;59286;59.274;17.974;2023-02-17T00:46:58;100508.16;;;2.21;100.00
71476;BME280;59286;59.274;17.974;2023-02-17T00:49:25;100519.03;;;2.23;100.00
71476;BME280;59286;59.274;17.974;2023-02-17T00:51:51;100500.41;;;2.21;100.00
71476;BME280;59286;59.274;17.974;2023-02-17T00:54:17;100503.78;;;2.21;100.00
71476;BME280;59286;59.274;17.974;2023-02-17T00:56:43;100504.63;;;2.27;100.00
71476;BME280;59286;59.274;17.974;2023-02-17T00:59:09;100503.13;;;2.31;100.00
71476;BME280;59286;59.274;17.974;2023-02-17T01:01:36;100495.28;;;2.26;100.00
71476;BME280;59286;59.274;17.974;2023-02-17T01:04:01;100490.66;;;2.28;100.00
71476;BME280;59286;59.274;17.974;2023-02-17T01:06:32;100493.22;;;2.28;100.00
71476;BME280;59286;59.274;17.974;2023-02-17T01:08:58;100485.81;;;2.31;100.00
71476;BME280;59286;59.274;17.974;2023-02-17T01:11:26;100490.72;;;2.33;100.00
71476;BME280;59286;59.274;17.974;2023-02-17T01:13:52;100500.63;;;2.41;100.00
71476;BME280;59286;59.274;17.974;2023-02-17T01:18:45;100500.94;;;2.44;100.00
71476;BME280;59286;59.274;17.974;2023-02-17T01:21:25;100499.66;;;2.47;100.00
71476;BME280;59286;59.274;17.974;2023-02-17T01:23:52;100487.16;;;2.39;100.00
71476;BME280;59286;59.274;17.974;2023-02-17T01:26:21;100502.25;;;2.47;100.00
71476;BME280;59286;59.274;17.974;2023-02-17T01:28:48;100504.81;;;2.47;100.00
71476;BME280;59286;59.274;17.974;2023-02-17T01:31:14;100505.91;;;2.51;100.00
71476;BME280;59286;59.274;17.974;2023-02-17T01:33:40;100508.06;;;2.59;100.00
71476;BME280;59286;59.274;17.974;2023-02-17T01:36:07;100507.06;;;2.65;100.00
71476;BME280;59286;59.274;17.974;2023-02-17T01:38:34;100505.28;;;2.65;100.00
71476;BME280;59286;59.274;17.974;2023-02-17T01:41:00;100503.53;;;2.71;100.00
71476;BME280;59286;59.274;17.974;2023-02-17T01:43:25;100506.69;;;2.78;100.00
71476;BME280;59286;59.274;17.974;2023-02-17T01:45:56;100509.38;;;2.88;100.00
71476;BME280;59286;59.274;17.974;2023-02-17T01:48:35;100502.94;;;2.90;100.00
71476;BME280;59286;59.274;17.974;2023-02-17T01:51:25;100506.38;;;3.01;100.00
71476;BME280;59286;59.274;17.974;2023-02-17T01:54:01;100505.13;;;3.04;100.00
71476;BME280;59286;59.274;17.974;2023-02-17T01:56:30;100498.72;;;3.11;100.00
71476;BME280;59286;59.274;17.974;2023-02-17T01:59:02;100495.63;;;3.14;100.00
71476;BME280;59286;59.274;17.974;2023-02-17T02:01:30;100484.75;;;3.17;100.00
71476;BME280;59286;59.274;17.974;2023-02-17T02:03:57;100483.47;;;3.15;100.00
71476;BME280;59286;59.274;17.974;2023-02-17T02:06:26;100485.81;;;3.21;100.00
71476;BME280;59286;59.274;17.974;2023-02-17T02:09:00;100482.78;;;3.29;100.00
71476;BME280;59286;59.274;17.974;2023-02-17T02:11:27;100468.22;;;3.23;100.00
71476;BME280;59286;59.274;17.974;2023-02-17T02:13:52;100472.63;;;3.23;100.00
71476;BME280;59286;59.274;17.974;2023-02-17T02:33:15;100458.81;;;3.07;100.00
71476;BME280;59286;59.274;17.974;2023-02-17T02:36:09;100453.63;;;3.07;100.00
71476;BME280;59286;59.274;17.974;2023-02-17T02:39:00;100454.69;;;3.11;100.00
71476;BME280;59286;59.274;17.974;2023-02-17T02:41:33;100449.53;;;3.11;100.00
71476;BME280;59286;59.274;17.974;2023-02-17T02:44:06;100450.06;;;3.13;100.00
71476;BME280;59286;59.274;17.974;2023-02-17T02:46:32;100436.78;;;3.10;100.00
71476;BME280;59286;59.274;17.974;2023-02-17T02:48:58;100431.94;;;3.13;100.00
71476;BME280;59286;59.274;17.974;2023-02-17T02:51:30;100428.84;;;3.16;100.00
71476;BME280;59286;59.274;17.974;2023-02-17T02:57:05;100431.69;;;3.20;100.00
71476;BME280;59286;59.274;17.974;2023-02-17T03:07:34;100424.91;;;3.09;100.00
71476;BME280;59286;59.274;17.974;2023-02-17T03:10:03;100422.56;;;3.07;100.00
71476;BME280;59286;59.274;17.974;2023-02-17T03:12:29;100422.28;;;3.04;100.00
71476;BME280;59286;59.274;17.974;2023-02-17T03:15:15;100422.00;;;3.00;100.00
71476;BME280;59286;59.274;17.974;2023-02-17T03:17:43;100419.41;;;3.00;100.00
71476;BME280;59286;59.274;17.974;2023-02-17T03:20:09;100411.66;;;3.00;100.00
71476;BME280;59286;59.274;17.974;2023-02-17T03:22:37;100402.31;;;3.04;100.00
71476;BME280;59286;59.274;17.974;2023-02-17T03:25:06;100405.97;;;3.08;100.00
71476;BME280;59286;59.274;17.974;2023-02-17T03:27:31;100389.38;;;3.04;100.00
71476;BME280;59286;59.274;17.974;2023-02-17T03:29:56;100390.69;;;3.07;100.00
71476;BME280;59286;59.274;17.974;2023-02-17T03:32:22;100401.63;;;3.14;100.00
71476;BME280;59286;59.274;17.974;2023-02-17T03:34:47;100392.59;;;3.21;100.00
71476;BME280;59286;59.274;17.974;2023-02-17T03:37:12;100398.56;;;3.22;100.00
71476;BME280;59286;59.274;17.974;2023-02-17T03:39:38;100391.06;;;3.25;100.00
71476;BME280;59286;59.274;17.974;2023-02-17T03:42:03;100391.09;;;3.30;100.00
71476;BME280;59286;59.274;17.974;2023-02-17T03:44:28;100389.81;;;3.33;100.00
71476;BME280;59286;59.274;17.974;2023-02-17T03:46:54;100390.34;;;3.30;100.00
71476;BME280;59286;59.274;17.974;2023-02-17T03:49:19;100382.31;;;3.31;100.00
71476;BME280;59286;59.274;17.974;2023-02-17T03:51:44;100380.00;;;3.40;100.00
71476;BME280;59286;59.274;17.974;2023-02-17T03:54:10;100385.69;;;3.37;100.00
71476;BME280;59286;59.274;17.974;2023-02-17T03:56:35;100371.47;;;3.39;100.00
71476;BME280;59286;59.274;17.974;2023-02-17T03:59:01;100365.78;;;3.37;100.00
71476;BME280;59286;59.274;17.974;2023-02-17T04:01:26;100370.97;;;3.42;100.00
71476;BME280;59286;59.274;17.974;2023-02-17T04:03:51;100369.13;;;3.38;100.00
71476;BME280;59286;59.274;17.974;2023-02-17T04:06:17;100380.06;;;3.45;100.00
71476;BME280;59286;59.274;17.974;2023-02-17T04:08:42;100382.13;;;3.48;100.00
71476;BME280;59286;59.274;17.974;2023-02-17T04:11:08;100382.94;;;3.53;100.00
71476;BME280;59286;59.274;17.974;2023-02-17T04:13:34;100370.50;;;3.55;100.00
71476;BME280;59286;59.274;17.974;2023-02-17T04:16:00;100371.81;;;3.58;100.00
71476;BME280;59286;59.274;17.974;2023-02-17T04:18:29;100357.03;;;3.53;100.00
71476;BME280;59286;59.274;17.974;2023-02-17T04:20:54;100360.66;;;3.57;100.00
71476;BME280;59286;59.274;17.974;2023-02-17T04:23:20;100342.53;;;3.57;100.00
71476;BME280;59286;59.274;17.974;2023-02-17T04:25:45;100346.94;;;3.62;100.00
71476;BME280;59286;59.274;17.974;2023-02-17T04:28:12;100339.41;;;3.55;100.00
71476;BME280;59286;59.274;17.974;2023-02-17T04:30:38;100331.38;;;3.62;100.00
71476;BME280;59286;59.274;17.974;2023-02-17T04:33:04;100329.56;;;3.57;100.00
71476;BME280;59286;59.274;17.974;2023-02-17T04:35:30;100313.50;;;3.50;100.00
71476;BME280;59286;59.274;17.974;2023-02-17T04:37:55;100317.91;;;3.55;100.00
71476;BME280;59286;59.274;17.974;2023-02-17T04:40:21;100322.59;;;3.58;100.00
71476;BME280;59286;59.274;17.974;2023-02-17T04:42:47;100318.16;;;3.53;100.00
71476;BME280;59286;59.274;17.974;2023-02-17T04:45:12;100318.69;;;3.55;100.00
71476;BME280;59286;59.274;17.974;2023-02-17T04:47:38;100311.16;;;3.54;100.00
71476;BME280;59286;59.274;17.974;2023-02-17T04:50:05;100318.94;;;3.59;100.00
71476;BME280;59286;59.274;17.974;2023-02-17T04:52:31;100317.94;;;3.60;100.00
71476;BME280;59286;59.274;17.974;2023-02-17T04:54:56;100310.91;;;3.55;100.00
71476;BME280;59286;59.274;17.974;2023-02-17T04:57:21;100318.19;;;3.63;100.00
71476;BME280;59286;59.274;17.974;2023-02-17T04:59:47;100305.78;;;3.65;100.00
71476;BME280;59286;59.274;17.974;2023-02-17T05:02:12;100312.50;;;3.66;100.00
71476;BME280;59286;59.274;17.974;2023-02-17T05:04:37;100311.75;;;3.71;100.00
71476;BME280;59286;59.274;17.974;2023-02-17T05:07:03;100304.72;;;3.71;100.00
71476;BME280;59286;59.274;17.974;2023-02-17T05:09:28;100285.78;;;3.66;100.00
71476;BME280;59286;59.274;17.974;2023-02-17T05:11:53;100296.41;;;3.69;100.00
71476;BME280;59286;59.274;17.974;2023-02-17T05:14:19;100290.97;;;3.66;100.00
71476;BME280;59286;59.274;17.974;2023-02-17T05:16:44;100293.03;;;3.64;100.00
71476;BME280;59286;59.274;17.974;2023-02-17T05:19:10;100287.59;;;3.60;100.00
71476;BME280;59286;59.274;17.974;2023-02-17T05:21:35;100286.59;;;3.66;100.00
71476;BME280;59286;59.274;17.974;2023-02-17T05:24:00;100292.28;;;3.73;100.00
71476;BME280;59286;59.274;17.974;2023-02-17T05:26:26;100298.00;;;3.75;100.00
71476;BME280;59286;59.274;17.974;2023-02-17T05:28:51;100294.13;;;3.78;100.00
71476;BME280;59286;59.274;17.974;2023-02-17T05:31:17;100289.22;;;3.81;100.00
71476;BME280;59286;59.274;17.974;2023-02-17T05:33:42;100279.06;;;3.75;100.00
71476;BME280;59286;59.274;17.974;2023-02-17T05:36:09;100277.78;;;3.82;100.00
71476;BME280;59286;59.274;17.974;2023-02-17T05:38:35;100254.19;;;3.79;100.00
71476;BME280;59286;59.274;17.974;2023-02-17T05:41:01;100261.75;;;3.85;100.00
71476;BME280;59286;59.274;17.974;2023-02-17T05:43:26;100252.66;;;3.83;99.94
71476;BME280;59286;59.274;17.974;2023-02-17T05:45:52;100264.34;;;3.85;99.81
71476;BME280;59286;59.274;17.974;2023-02-17T05:48:17;100248.78;;;3.85;99.77
71476;BME280;59286;59.274;17.974;2023-02-17T05:50:42;100248.25;;;3.88;99.78
71476;BME280;59286;59.274;17.974;2023-02-17T05:53:08;100234.25;;;3.74;100.00
71476;BME280;59286;59.274;17.974;2023-02-17T05:55:33;100232.19;;;3.81;99.28
71476;BME280;59286;59.274;17.974;2023-02-17T05:57:58;100233.47;;;3.79;99.50
71476;BME280;59286;59.274;17.974;2023-02-17T06:00:24;100235.78;;;3.80;99.61
71476;BME280;59286;59.274;17.974;2023-02-17T06:02:49;100235.00;;;3.75;99.47
71476;BME280;59286;59.274;17.974;2023-02-17T06:05:15;100236.59;;;3.71;99.87
71476;BME280;59286;59.274;17.974;2023-02-17T06:07:40;100231.66;;;3.74;99.68
71476;BME280;59286;59.274;17.974;2023-02-17T06:10:06;100242.56;;;3.81;99.65
71476;BME280;59286;59.274;17.974;2023-02-17T06:12:32;100237.88;;;3.83;99.43
71476;BME280;59286;59.274;17.974;2023-02-17T06:14:57;100228.00;;;3.80;99.36
71476;BME280;59286;59.274;17.974;2023-02-17T06:17:22;100227.53;;;3.83;99.40
71476;BME280;59286;59.274;17.974;2023-02-17T06:19:48;100216.59;;;3.71;99.10
71476;BME280;59286;59.274;17.974;2023-02-17T06:22:13;100225.41;;;3.80;99.13
71476;BME280;59286;59.274;17.974;2023-02-17T06:24:38;100219.97;;;3.77;99.23
71476;BME280;59286;59.274;17.974;2023-02-17T06:27:04;100227.53;;;3.78;99.54
71476;BME280;59286;59.274;17.974;2023-02-17T06:29:29;100225.16;;;3.77;99.91
71476;BME280;59286;59.274;17.974;2023-02-17T06:31:55;100222.34;;;3.78;99.65
71476;BME280;59286;59.274;17.974;2023-02-17T06:34:20;100213.00;;;3.72;99.96
71476;BME280;59286;59.274;17.974;2023-02-17T06:36:45;100214.03;;;3.76;99.77
71476;BME280;59286;59.274;17.974;2023-02-17T06:39:10;100212.97;;;3.82;99.71
71476;BME280;59286;59.274;17.974;2023-02-17T06:41:36;100206.25;;;3.81;99.56
71476;BME280;59286;59.274;17.974;2023-02-17T06:44:01;100205.22;;;3.82;99.93
71476;BME280;59286;59.274;17.974;2023-02-17T06:46:27;100204.19;;;3.83;99.90
71476;BME280;59286;59.274;17.974;2023-02-17T06:48:52;100198.75;;;3.85;99.59
71476;BME280;59286;59.274;17.974;2023-02-17T06:51:18;100193.81;;;3.88;99.70
71476;BME280;59286;59.274;17.974;2023-02-17T06:53:43;100184.75;;;3.81;100.00
71476;BME280;59286;59.274;17.974;2023-02-17T06:56:08;100181.13;;;3.82;100.00
71476;BME280;59286;59.274;17.974;2023-02-17T06:58:35;100175.66;;;3.88;99.68
71476;BME280;59286;59.274;17.974;2023-02-17T07:01:01;100165.81;;;3.80;99.72
71476;BME280;59286;59.274;17.974;2023-02-17T07:03:26;100175.16;;;3.91;99.80
71476;BME280;59286;59.274;17.974;2023-02-17T07:05:56;100166.84;;;3.94;99.62
71476;BME280;59286;59.274;17.974;2023-02-17T07:08:22;100168.94;;;3.87;99.20
71476;BME280;59286;59.274;17.974;2023-02-17T07:10:47;100174.88;;;4.03;99.08
71476;BME280;59286;59.274;17.974;2023-02-17T07:13:13;100166.59;;;4.06;98.54
71476;BME280;59286;59.274;17.974;2023-02-17T07:15:38;100166.56;;;4.11;98.00
71476;BME280;59286;59.274;17.974;2023-02-17T07:18:03;100149.75;;;3.99;97.97
71476;BME280;59286;59.274;17.974;2023-02-17T07:20:29;100166.84;;;4.10;97.86
71476;BME280;59286;59.274;17.974;2023-02-17T07:22:56;100153.59;;;4.11;97.45
71476;BME280;59286;59.274;17.974;2023-02-17T07:25:21;100148.69;;;4.10;97.10
71476;BME280;59286;59.274;17.974;2023-02-17T07:27:46;100131.56;;;4.09;97.23
71476;BME280;59286;59.274;17.974;2023-02-17T07:30:12;100128.97;;;4.09;97.02
71476;BME280;59286;59.274;17.974;2023-02-17T07:32:38;100133.09;;;4.15;96.89
71476;BME280;59286;59.274;17.974;2023-02-17T07:35:03;100118.59;;;4.14;96.61
71476;BME280;59286;59.274;17.974;2023-02-17T07:37:28;100113.41;;;4.14;96.12
71476;BME280;59286;59.274;17.974;2023-02-17T07:39:54;100109.50;;;4.16;96.00
71476;BME280;59286;59.274;17.974;2023-02-17T07:42:21;100103.03;;;4.19;96.32
71476;BME280;59286;59.274;17.974;2023-02-17T07:44:46;100094.72;;;4.17;95.97
71476;BME280;59286;59.274;17.974;2023-02-17T07:47:11;100096.00;;;4.24;96.04
71476;BME280;59286;59.274;17.974;2023-02-17T07:49:37;100089.78;;;4.20;95.90
71476;BME280;59286;59.274;17.974;2023-02-17T07:52:02;100090.03;;;4.24;95.70
71476;BME280;59286;59.274;17.974;2023-02-17T07:54:28;100080.16;;;4.26;95.60
71476;BME280;59286;59.274;17.974;2023-02-17T07:56:53;100073.97;;;4.27;95.64
71476;BME280;59286;59.274;17.974;2023-02-17T07:59:18;100057.56;;;4.31;95.32
71476;BME280;59286;59.274;17.974;2023-02-17T08:01:44;100061.44;;;4.39;95.15
71476;BME280;59286;59.274;17.974;2023-02-17T08:04:09;100040.69;;;4.39;94.92
71476;BME280;59286;59.274;17.974;2023-02-17T08:06:36;100050.25;;;4.48;94.31
71476;BME280;59286;59.274;17.974;2023-02-17T08:09:03;100041.13;;;4.56;94.34
71476;BME280;59286;59.274;17.974;2023-02-17T08:11:47;100039.00;;;4.68;94.30
71476;BME280;59286;59.274;17.974;2023-02-17T08:14:31;100023.09;;;4.74;93.49
71476;BME280;59286;59.274;17.974;2023-02-17T08:16:58;100036.88;;;4.75;93.44
71476;BME280;59286;59.274;17.974;2023-02-17T08:19:24;100027.50;;;4.74;93.44
71476;BME280;59286;59.274;17.974;2023-02-17T08:21:50;100019.72;;;4.79;93.14
71476;BME280;59286;59.274;17.974;2023-02-17T08:24:16;100026.41;;;4.85;92.69
71476;BME280;59286;59.274;17.974;2023-02-17T08:26:41;100024.06;;;4.88;93.09
71476;BME280;59286;59.274;17.974;2023-02-17T08:29:07;100022.44;;;4.98;92.39
71476;BME280;59286;59.274;17.974;2023-02-17T08:31:34;100026.28;;;5.00;92.41
71476;BME280;59286;59.274;17.974;2023-02-17T08:34:04;100020.59;;;5.03;92.67
71476;BME280;59286;59.274;17.974;2023-02-17T08:36:30;100014.06;;;5.06;92.49
71476;BME280;59286;59.274;17.974;2023-02-17T08:38:55;100005.22;;;5.07;92.35
71476;BME280;59286;59.274;17.974;2023-02-17T08:41:30;100011.22;;;5.07;91.98
71476;BME280;59286;59.274;17.974;2023-02-17T08:44:01;100009.09;;;5.09;91.70
71476;BME280;59286;59.274;17.974;2023-02-17T08:46:27;99998.22;;;5.07;91.52
71476;BME280;59286;59.274;17.974;2023-02-17T08:48:54;99995.13;;;5.05;91.51
71476;BME280;59286;59.274;17.974;2023-02-17T08:51:22;99995.34;;;5.09;91.84
71476;BME280;59286;59.274;17.974;2023-02-17T08:53:52;99985.25;;;5.02;91.68
71476;BME280;59286;59.274;17.974;2023-02-17T08:56:20;99970.69;;;5.06;91.39
71476;BME280;59286;59.274;17.974;2023-02-17T08:58:45;99974.28;;;5.10;91.12
71476;BME280;59286;59.274;17.974;2023-02-17T09:01:12;99970.28;;;5.23;91.66
71476;BME280;59286;59.274;17.974;2023-02-17T09:03:38;99958.06;;;5.23;90.47
71476;BME280;59286;59.274;17.974;2023-02-17T09:06:05;99964.22;;;5.32;90.67
71476;BME280;59286;59.274;17.974;2023-02-17T09:08:31;99955.81;;;5.40;91.04
71476;BME280;59286;59.274;17.974;2023-02-17T09:10:57;99953.44;;;5.44;90.19
71476;BME280;59286;59.274;17.974;2023-02-17T09:13:23;99953.09;;;5.50;89.89
71476;BME280;59286;59.274;17.974;2023-02-17T09:15:48;99949.84;;;5.63;90.19
71476;BME280;59286;59.274;17.974;2023-02-17T09:18:17;99942.25;;;5.67;89.10
71476;BME280;59286;59.274;17.974;2023-02-17T09:20:43;99934.63;;;5.75;89.17
71476;BME280;59286;59.274;17.974;2023-02-17T09:23:08;99937.25;;;5.75;88.59
71476;BME280;59286;59.274;17.974;2023-02-17T09:25:33;99924.16;;;5.80;88.35
71476;BME280;59286;59.274;17.974;2023-02-17T09:27:59;99926.25;;;5.83;88.24
71476;BME280;59286;59.274;17.974;2023-02-17T09:30:24;99916.38;;;5.80;87.23
71476;BME280;59286;59.274;17.974;2023-02-17T09:32:49;99907.53;;;5.81;88.09
71476;BME280;59286;59.274;17.974;2023-02-17T09:35:16;99905.38;;;5.88;87.55
71476;BME280;59286;59.274;17.974;2023-02-17T09:37:42;99888.78;;;5.84;87.11
71476;BME280;59286;59.274;17.974;2023-02-17T09:40:14;99885.63;;;5.87;87.30
71476;BME280;59286;59.274;17.974;2023-02-17T09:42:41;99877.78;;;5.93;87.15
71476;BME280;59286;59.274;17.974;2023-02-17T09:45:14;99881.78;;;6.04;86.74
71476;BME280;59286;59.274;17.974;2023-02-17T09:47:58;99866.00;;;5.95;86.63
71476;BME280;59286;59.274;17.974;2023-02-17T09:50:36;99858.28;;;5.90;86.59
71476;BME280;59286;59.274;17.974;2023-02-17T09:55:46;99838.56;;;5.89;86.40
71476;BME280;59286;59.274;17.974;2023-02-17T10:01:14;99818.84;;;6.02;86.35
71476;BME280;59286;59.274;17.974;2023-02-17T10:06:38;99805.94;;;5.97;84.87
71476;BME280;59286;59.274;17.974;2023-02-17T10:09:29;99781.72;;;5.77;85.71
71476;BME280;59286;59.274;17.974;2023-02-17T10:14:38;99761.16;;;5.62;85.77
71476;BME280;59286;59.274;17.974;2023-02-17T10:17:24;99767.88;;;5.63;85.74
71476;BME280;59286;59.274;17.974;2023-02-17T10:19:58;99749.28;;;5.56;85.79
71476;BME280;59286;59.274;17.974;2023-02-17T10:22:26;99752.94;;;5.55;86.04
71476;BME280;59286;59.274;17.974;2023-02-17T10:24:52;99743.53;;;5.59;86.35
71476;BME280;59286;59.274;17.974;2023-02-17T10:32:45;99710.84;;;5.53;85.28
71476;BME280;59286;59.274;17.974;2023-02-17T10:35:15;99701.94;;;5.59;84.70
71476;BME280;59286;59.274;17.974;2023-02-17T10:37:49;99696.94;;;5.63;84.91
71476;BME280;59286;59.274;17.974;2023-02-17T10:40:22;99691.53;;;5.59;85.05
71476;BME280;59286;59.274;17.974;2023-02-17T10:42:50;99680.91;;;5.56;84.73
71476;BME280;59286;59.274;17.974;2023-02-17T10:45:24;99677.56;;;5.55;84.73
71476;BME280;59286;59.274;17.974;2023-02-17T10:47:58;99665.56;;;5.59;85.04
71476;BME280;59286;59.274;17.974;2023-02-17T10:50:26;99647.91;;;5.56;84.76
71476;BME280;59286;59.274;17.974;2023-02-17T10:52:52;99642.56;;;5.66;84.98
71476;BME280;59286;59.274;17.974;2023-02-17T10:55:37;99623.69;;;5.74;83.43
71476;BME280;59286;59.274;17.974;2023-02-17T10:58:11;99627.16;;;5.70;84.72
71476;BME280;59286;59.274;17.974;2023-02-17T11:00:40;99601.03;;;5.61;84.18
71476;BME280;59286;59.274;17.974;2023-02-17T11:03:05;99597.78;;;5.69;84.03
71476;BME280;59286;59.274;17.974;2023-02-17T11:05:42;99584.31;;;5.67;84.31
71476;BME280;59286;59.274;17.974;2023-02-17T11:08:26;99589.13;;;5.74;84.37
71476;BME280;59286;59.274;17.974;2023-02-17T11:11:01;99573.50;;;5.60;84.41
71476;BME280;59286;59.274;17.974;2023-02-17T11:13:39;99557.13;;;5.46;85.15
71476;BME280;59286;59.274;17.974;2023-02-17T11:16:20;99545.75;;;5.42;85.09
71476;BME280;59286;59.274;17.974;2023-02-17T11:18:47;99553.56;;;5.42;84.82
71476;BME280;59286;59.274;17.974;2023-02-17T11:21:13;99539.19;;;5.31;84.99
71476;BME280;59286;59.274;17.974;2023-02-17T11:23:54;99535.13;;;5.25;85.49
71476;BME280;59286;59.274;17.974;2023-02-17T11:26:25;99522.00;;;5.17;85.73
71476;BME280;59286;59.274;17.974;2023-02-17T11:28:51;99516.25;;;5.20;85.63
71476;BME280;59286;59.274;17.974;2023-02-17T11:31:23;99516.69;;;5.08;86.16
71476;BME280;59286;59.274;17.974;2023-02-17T11:33:49;99504.84;;;5.02;86.67
71476;BME280;59286;59.274;17.974;2023-02-17T11:36:32;99497.94;;;5.11;86.18
71476;BME280;59286;59.274;17.974;2023-02-17T11:38:57;99498.03;;;5.06;86.20
71476;BME280;59286;59.274;17.974;2023-02-17T11:41:25;99492.34;;;5.04;85.92
71476;BME280;59286;59.274;17.974;2023-02-17T11:43:55;99495.38;;;4.92;86.75
71476;BME280;59286;59.274;17.974;2023-02-17T11:46:45;99477.19;;;4.79;86.10
71476;BME280;59286;59.274;17.974;2023-02-17T11:49:51;99478.44;;;4.81;86.88
71476;BME280;59286;59.274;17.974;2023-02-17T11:52:36;99458.72;;;4.80;87.12
71476;BME280;59286;59.274;17.974;2023-02-17T11:55:22;99439.97;;;4.83;86.89
71476;BME280;59286;59.274;17.974;2023-02-17T12:00:54;99426.34;;;4.91;86.46
71476;BME280;59286;59.274;17.974;2023-02-17T12:06:21;99400.19;;;4.88;86.03
71476;BME280;59286;59.274;17.974;2023-02-17T12:11:43;99380.03;;;4.66;86.20
71476;BME280;59286;59.274;17.974;2023-02-17T12:14:37;99365.88;;;4.59;86.63
71476;BME280;59286;59.274;17.974;2023-02-17T12:17:24;99360.22;;;4.57;86.33
71476;BME280;59286;59.274;17.974;2023-02-17T12:20:32;99340.69;;;4.46;86.71
71476;BME280;59286;59.274;17.974;2023-02-17T12:23:23;99323.47;;;4.36;86.60
71476;BME280;59286;59.274;17.974;2023-02-17T12:26:02;99316.38;;;4.42;87.01
71476;BME280;59286;59.274;17.974;2023-02-17T12:31:18;99306.50;;;4.44;86.63
71476;BME280;59286;59.274;17.974;2023-02-17T12:34:01;99296.81;;;4.49;86.39
71476;BME280;59286;59.274;17.974;2023-02-17T12:36:33;99280.31;;;4.40;86.61
71476;BME280;59286;59.274;17.974;2023-02-17T12:39:20;99275.91;;;4.41;86.80
71476;BME280;59286;59.274;17.974;2023-02-17T12:41:54;99262.25;;;4.35;86.77
71476;BME280;59286;59.274;17.974;2023-02-17T12:44:46;99253.81;;;4.30;87.81
71476;BME280;59286;59.274;17.974;2023-02-17T12:47:36;99229.59;;;4.21;88.06
71476;BME280;59286;59.274;17.974;2023-02-17T12:50:10;99236.41;;;4.17;88.94
71476;BME280;59286;59.274;17.974;2023-02-17T12:52:42;99216.22;;;4.14;90.17
71476;BME280;59286;59.274;17.974;2023-02-17T12:57:58;99201.66;;;3.85;92.51
71476;BME280;59286;59.274;17.974;2023-02-17T13:00:41;99195.66;;;3.71;94.55
71476;BME280;59286;59.274;17.974;2023-02-17T13:03:07;99182.66;;;3.58;95.43
71476;BME280;59286;59.274;17.974;2023-02-17T13:09:17;99162.28;;;3.51;97.00
71476;BME280;59286;59.274;17.974;2023-02-17T13:11:25;99142.22;;;3.43;96.94
71476;BME280;59286;59.274;17.974;2023-02-17T13:13:51;99135.03;;;3.40;97.21
71476;BME280;59286;59.274;17.974;2023-02-17T13:16:16;99128.88;;;3.36;98.14
71476;BME280;59286;59.274;17.974;2023-02-17T13:18:44;99124.09;;;3.43;97.58
71476;BME280;59286;59.274;17.974;2023-02-17T13:21:24;99115.63;;;3.38;98.77
71476;BME280;59286;59.274;17.974;2023-02-17T13:24:02;99105.00;;;3.39;99.22
71476;BME280;59286;59.274;17.974;2023-02-17T13:26:33;99088.41;;;3.40;99.09
71476;BME280;59286;59.274;17.974;2023-02-17T13:31:54;99065.94;;;3.36;100.00
71476;BME280;59286;59.274;17.974;2023-02-17T13:36:54;99031.50;;;3.22;100.00
71476;BME280;59286;59.274;17.974;2023-02-17T13:41:56;99020.28;;;3.26;100.00
71476;BME280;59286;59.274;17.974;2023-02-17T13:47:02;98986.84;;;3.30;100.00
71476;BME280;59286;59.274;17.974;2023-02-17T13:49:31;98977.63;;;3.24;100.00
71476;BME280;59286;59.274;17.974;2023-02-17T13:52:30;98965.94;;;3.26;100.00
71476;BME280;59286;59.274;17.974;2023-02-17T13:54:58;98947.31;;;3.24;100.00
71476;BME280;59286;59.274;17.974;2023-02-17T13:57:32;98932.44;;;3.16;100.00
71476;BME280;59286;59.274;17.974;2023-02-17T14:02:49;98913.66;;;3.24;100.00
71476;BME280;59286;59.274;17.974;2023-02-17T14:05:20;98899.19;;;3.23;100.00
71476;BME280;59286;59.274;17.974;2023-02-17T14:07:48;98899.19;;;3.23;100.00
71476;BME280;59286;59.274;17.974;2023-02-17T14:10:32;98878.47;;;3.23;100.00
71476;BME280;59286;59.274;17.974;2023-02-17T14:12:57;98872.34;;;3.33;100.00
71476;BME280;59286;59.274;17.974;2023-02-17T14:15:25;98860.47;;;3.32;100.00